sensor_id;sensor_type;location;lat;lon;timestamp;pressure;altitude;pressure_sealevel;temperature;humidity
49979;BME280;35869;50.990;6.962;2023-03-22T00:04:59;100845.41;;;10.54;94.94
49979;BME280;35869;50.990;6.962;2023-03-22T00:09:59;100836.47;;;10.61;92.53
49979;BME280;35869;50.990;6.962;2023-03-22T00:14:59;100837.28;;;10.62;93.74
49979;BME280;35869;50.990;6.962;2023-03-22T00:20:00;100837.06;;;10.66;93.90
49979;BME280;35869;50.990;6.962;2023-03-22T00:25:00;100822.00;;;10.54;97.20
49979;BME280;35869;50.990;6.962;2023-03-22T00:30:00;100824.03;;;10.48;97.71
49979;BME280;35869;50.990;6.962;2023-03-22T00:35:01;100815.69;;;10.60;96.70
49979;BME280;35869;50.990;6.962;2023-03-22T00:40:05;100817.34;;;10.62;96.67
49979;BME280;35869;50.990;6.962;2023-03-22T00:45:07;100797.25;;;10.66;94.98
49979;BME280;35869;50.990;6.962;2023-03-22T00:50:08;100792.78;;;10.70;95.44
49979;BME280;35869;50.990;6.962;2023-03-22T00:55:09;100789.72;;;10.80;93.23
49979;BME280;35869;50.990;6.962;2023-03-22T01:00:10;100780.69;;;10.68;96.31
49979;BME280;35869;50.990;6.962;2023-03-22T01:05:10;100770.44;;;10.84;92.02
49979;BME280;35869;50.990;6.962;2023-03-22T01:10:11;100765.75;;;10.74;94.39
49979;BME280;35869;50.990;6.962;2023-03-22T01:15:12;100772.28;;;10.82;92.84
49979;BME280;35869;50.990;6.962;2023-03-22T01:20:12;100766.50;;;10.76;93.53
49979;BME280;35869;50.990;6.962;2023-03-22T01:25:12;100757.72;;;10.78;92.66
49979;BME280;35869;50.990;6.962;2023-03-22T01:30:13;100758.91;;;10.71;93.95
49979;BME280;35869;50.990;6.962;2023-03-22T01:35:13;100749.34;;;10.72;94.55
49979;BME280;35869;50.990;6.962;2023-03-22T01:40:14;100758.06;;;10.71;94.30
49979;BME280;35869;50.990;6.962;2023-03-22T01:50:15;100740.72;;;10.71;92.76
49979;BME280;35869;50.990;6.962;2023-03-22T01:55:16;100732.25;;;10.66;92.63
49979;BME280;35869;50.990;6.962;2023-03-22T02:00:17;100732.41;;;10.63;94.31
49979;BME280;35869;50.990;6.962;2023-03-22T02:05:18;100727.41;;;10.58;94.66
49979;BME280;35869;50.990;6.962;2023-03-22T02:10:23;100727.69;;;10.52;94.60
49979;BME280;35869;50.990;6.962;2023-03-22T02:20:57;100714.19;;;10.44;95.19
49979;BME280;35869;50.990;6.962;2023-03-22T02:48:00;100691.19;;;10.14;95.50
49979;BME280;35869;50.990;6.962;2023-03-22T02:53:18;100675.88;;;10.08;95.32
49979;BME280;35869;50.990;6.962;2023-03-22T02:58:28;100673.53;;;10.02;95.05
49979;BME280;35869;50.990;6.962;2023-03-22T03:03:32;100667.09;;;9.91;96.45
49979;BME280;35869;50.990;6.962;2023-03-22T03:08:35;100663.41;;;9.96;95.56
49979;BME280;35869;50.990;6.962;2023-03-22T03:13:36;100664.56;;;9.89;96.47
49979;BME280;35869;50.990;6.962;2023-03-22T03:19:02;100663.81;;;9.87;95.55
49979;BME280;35869;50.990;6.962;2023-03-22T03:24:20;100668.47;;;9.79;96.54
49979;BME280;35869;50.990;6.962;2023-03-22T03:34:38;100663.53;;;9.73;95.76
49979;BME280;35869;50.990;6.962;2023-03-22T03:39:44;100652.69;;;9.63;95.70
49979;BME280;35869;50.990;6.962;2023-03-22T03:44:47;100655.47;;;9.58;96.54
49979;BME280;35869;50.990;6.962;2023-03-22T03:49:48;100648.13;;;9.48;98.13
49979;BME280;35869;50.990;6.962;2023-03-22T03:54:49;100656.22;;;9.40;98.06
49979;BME280;35869;50.990;6.962;2023-03-22T03:59:50;100666.00;;;9.33;98.02
49979;BME280;35869;50.990;6.962;2023-03-22T04:04:50;100662.81;;;9.27;98.07
49979;BME280;35869;50.990;6.962;2023-03-22T04:09:50;100661.50;;;9.17;98.45
49979;BME280;35869;50.990;6.962;2023-03-22T04:14:50;100662.56;;;9.11;98.09
49979;BME280;35869;50.990;6.962;2023-03-22T04:19:50;100678.59;;;8.99;97.83
49979;BME280;35869;50.990;6.962;2023-03-22T04:24:51;100667.50;;;8.95;97.84
49979;BME280;35869;50.990;6.962;2023-03-22T04:29:51;100669.16;;;8.98;98.35
49979;BME280;35869;50.990;6.962;2023-03-22T04:34:51;100665.03;;;8.92;99.42
49979;BME280;35869;50.990;6.962;2023-03-22T04:39:52;100655.50;;;8.93;98.94
49979;BME280;35869;50.990;6.962;2023-03-22T04:44:52;100641.66;;;8.94;97.51
49979;BME280;35869;50.990;6.962;2023-03-22T04:49:53;100644.31;;;8.92;97.08
49979;BME280;35869;50.990;6.962;2023-03-22T04:54:53;100632.25;;;8.91;97.92
49979;BME280;35869;50.990;6.962;2023-03-22T04:59:53;100625.25;;;8.93;98.51
49979;BME280;35869;50.990;6.962;2023-03-22T05:04:53;100631.34;;;8.92;97.24
49979;BME280;35869;50.990;6.962;2023-03-22T05:09:53;100646.94;;;8.91;96.66
49979;BME280;35869;50.990;6.962;2023-03-22T05:14:54;100639.41;;;8.85;97.52
49979;BME280;35869;50.990;6.962;2023-03-22T05:19:54;100624.75;;;8.84;96.80
49979;BME280;35869;50.990;6.962;2023-03-22T05:24:54;100627.50;;;8.79;96.81
49979;BME280;35869;50.990;6.962;2023-03-22T05:29:54;100631.91;;;8.77;97.18
49979;BME280;35869;50.990;6.962;2023-03-22T05:34:55;100634.75;;;8.71;97.87
49979;BME280;35869;50.990;6.962;2023-03-22T05:39:55;100639.03;;;8.72;97.14
49979;BME280;35869;50.990;6.962;2023-03-22T05:44:55;100645.13;;;8.71;97.26
49979;BME280;35869;50.990;6.962;2023-03-22T05:49:55;100649.53;;;8.69;98.08
49979;BME280;35869;50.990;6.962;2023-03-22T05:54:56;100647.09;;;8.64;97.68
49979;BME280;35869;50.990;6.962;2023-03-22T05:59:56;100648.63;;;8.70;98.88
49979;BME280;35869;50.990;6.962;2023-03-22T06:04:56;100642.19;;;8.80;99.98
49979;BME280;35869;50.990;6.962;2023-03-22T06:09:56;100648.00;;;8.85;99.31
49979;BME280;35869;50.990;6.962;2023-03-22T06:14:56;100646.50;;;9.03;99.82
49979;BME280;35869;50.990;6.962;2023-03-22T06:19:57;100632.47;;;9.07;100.00
49979;BME280;35869;50.990;6.962;2023-03-22T06:24:57;100642.97;;;9.04;100.00
49979;BME280;35869;50.990;6.962;2023-03-22T06:29:57;100639.72;;;9.21;99.95
49979;BME280;35869;50.990;6.962;2023-03-22T06:34:58;100638.84;;;9.20;99.99
49979;BME280;35869;50.990;6.962;2023-03-22T06:39:58;100642.00;;;9.28;100.00
49979;BME280;35869;50.990;6.962;2023-03-22T06:44:58;100647.03;;;9.33;100.00
49979;BME280;35869;50.990;6.962;2023-03-22T06:49:58;100642.34;;;9.41;100.00
49979;BME280;35869;50.990;6.962;2023-03-22T06:54:58;100645.72;;;9.43;100.00
49979;BME280;35869;50.990;6.962;2023-03-22T06:59:59;100642.63;;;9.55;100.00
49979;BME280;35869;50.990;6.962;2023-03-22T07:04:59;100637.31;;;9.79;99.76
49979;BME280;35869;50.990;6.962;2023-03-22T07:09:59;100638.63;;;9.89;99.12
49979;BME280;35869;50.990;6.962;2023-03-22T07:14:59;100640.91;;;9.97;98.38
49979;BME280;35869;50.990;6.962;2023-03-22T07:20:00;100629.91;;;9.90;99.85
49979;BME280;35869;50.990;6.962;2023-03-22T07:25:00;100630.88;;;10.08;98.77
49979;BME280;35869;50.990;6.962;2023-03-22T07:30:00;100616.78;;;10.13;98.13
49979;BME280;35869;50.990;6.962;2023-03-22T07:35:01;100614.19;;;10.34;97.86
49979;BME280;35869;50.990;6.962;2023-03-22T07:40:01;100612.22;;;10.39;97.52
49979;BME280;35869;50.990;6.962;2023-03-22T07:45:02;100612.06;;;10.61;97.16
49979;BME280;35869;50.990;6.962;2023-03-22T07:50:03;100605.91;;;10.63;96.35
49979;BME280;35869;50.990;6.962;2023-03-22T07:55:03;100606.59;;;10.86;96.30
49979;BME280;35869;50.990;6.962;2023-03-22T08:00:05;100604.38;;;10.95;95.28
49979;BME280;35869;50.990;6.962;2023-03-22T08:05:06;100599.66;;;11.04;96.01
49979;BME280;35869;50.990;6.962;2023-03-22T08:10:07;100605.53;;;11.07;95.82
49979;BME280;35869;50.990;6.962;2023-03-22T08:15:08;100600.53;;;11.21;94.75
49979;BME280;35869;50.990;6.962;2023-03-22T08:20:09;100597.16;;;11.19;94.26
49979;BME280;35869;50.990;6.962;2023-03-22T08:25:09;100587.84;;;11.33;92.99
49979;BME280;35869;50.990;6.962;2023-03-22T08:30:10;100591.19;;;11.17;95.67
49979;BME280;35869;50.990;6.962;2023-03-22T08:35:10;100592.97;;;11.34;93.96
49979;BME280;35869;50.990;6.962;2023-03-22T08:40:11;100592.44;;;11.45;91.17
49979;BME280;35869;50.990;6.962;2023-03-22T08:45:11;100603.91;;;11.41;88.51
49979;BME280;35869;50.990;6.962;2023-03-22T08:50:11;100605.97;;;11.52;89.81
49979;BME280;35869;50.990;6.962;2023-03-22T08:55:12;100603.47;;;11.85;86.54
49979;BME280;35869;50.990;6.962;2023-03-22T09:00:12;100603.81;;;11.60;85.94
49979;BME280;35869;50.990;6.962;2023-03-22T09:05:13;100608.38;;;11.91;87.88
49979;BME280;35869;50.990;6.962;2023-03-22T09:10:14;100608.13;;;12.28;87.61
49979;BME280;35869;50.990;6.962;2023-03-22T09:15:14;100590.41;;;12.02;82.31
49979;BME280;35869;50.990;6.962;2023-03-22T09:20:14;100608.69;;;11.85;81.89
49979;BME280;35869;50.990;6.962;2023-03-22T09:25:14;100599.13;;;12.01;80.34
49979;BME280;35869;50.990;6.962;2023-03-22T09:30:15;100591.97;;;11.89;80.44
49979;BME280;35869;50.990;6.962;2023-03-22T09:35:15;100597.78;;;11.94;80.12
49979;BME280;35869;50.990;6.962;2023-03-22T09:40:15;100591.78;;;12.09;80.06
49979;BME280;35869;50.990;6.962;2023-03-22T09:45:19;100586.38;;;12.12;79.62
49979;BME280;35869;50.990;6.962;2023-03-22T09:50:27;100578.44;;;12.47;78.25
49979;BME280;35869;50.990;6.962;2023-03-22T09:55:42;100586.13;;;12.50;77.07
49979;BME280;35869;50.990;6.962;2023-03-22T10:00:47;100596.03;;;12.43;78.97
49979;BME280;35869;50.990;6.962;2023-03-22T10:11:20;100587.03;;;12.49;75.76
49979;BME280;35869;50.990;6.962;2023-03-22T10:16:29;100572.50;;;12.61;76.69
49979;BME280;35869;50.990;6.962;2023-03-22T10:21:30;100576.50;;;12.66;75.11
49979;BME280;35869;50.990;6.962;2023-03-22T10:26:39;100565.09;;;12.37;75.66
49979;BME280;35869;50.990;6.962;2023-03-22T10:31:42;100581.91;;;12.79;76.59
49979;BME280;35869;50.990;6.962;2023-03-22T10:36:43;100572.94;;;13.15;75.74
49979;BME280;35869;50.990;6.962;2023-03-22T10:41:44;100560.84;;;12.98;76.20
49979;BME280;35869;50.990;6.962;2023-03-22T10:46:48;100568.59;;;12.84;74.20
49979;BME280;35869;50.990;6.962;2023-03-22T10:51:53;100578.38;;;12.96;74.48
49979;BME280;35869;50.990;6.962;2023-03-22T10:56:55;100573.56;;;13.34;72.29
49979;BME280;35869;50.990;6.962;2023-03-22T11:01:55;100570.13;;;13.18;74.38
49979;BME280;35869;50.990;6.962;2023-03-22T11:06:55;100582.66;;;12.97;71.48
49979;BME280;35869;50.990;6.962;2023-03-22T11:11:58;100569.38;;;13.16;73.02
49979;BME280;35869;50.990;6.962;2023-03-22T11:22:36;100572.31;;;12.79;69.71
49979;BME280;35869;50.990;6.962;2023-03-22T11:27:48;100574.72;;;12.98;69.95
49979;BME280;35869;50.990;6.962;2023-03-22T11:38:21;100569.38;;;13.31;72.31
49979;BME280;35869;50.990;6.962;2023-03-22T11:43:24;100571.22;;;13.29;69.30
49979;BME280;35869;50.990;6.962;2023-03-22T11:48:28;100564.75;;;13.51;73.86
49979;BME280;35869;50.990;6.962;2023-03-22T11:53:32;100561.59;;;13.46;71.74
49979;BME280;35869;50.990;6.962;2023-03-22T12:03:39;100546.75;;;13.46;68.95
49979;BME280;35869;50.990;6.962;2023-03-22T12:09:00;100560.63;;;13.32;71.63
49979;BME280;35869;50.990;6.962;2023-03-22T12:14:24;100548.03;;;13.09;70.49
49979;BME280;35869;50.990;6.962;2023-03-22T12:19:51;100542.78;;;13.25;70.41
49979;BME280;35869;50.990;6.962;2023-03-22T12:24:54;100551.94;;;13.02;70.17
49979;BME280;35869;50.990;6.962;2023-03-22T12:30:24;100547.22;;;12.93;69.39
49979;BME280;35869;50.990;6.962;2023-03-22T12:35:29;100542.47;;;13.15;69.83
49979;BME280;35869;50.990;6.962;2023-03-22T12:40:33;100536.63;;;12.96;70.26
49979;BME280;35869;50.990;6.962;2023-03-22T12:45:42;100541.16;;;12.92;70.14
49979;BME280;35869;50.990;6.962;2023-03-22T12:50:52;100540.72;;;13.00;71.13
49979;BME280;35869;50.990;6.962;2023-03-22T12:55:55;100542.50;;;12.84;69.87
49979;BME280;35869;50.990;6.962;2023-03-22T13:00:57;100535.63;;;12.82;70.27
49979;BME280;35869;50.990;6.962;2023-03-22T13:11:42;100540.78;;;12.84;73.40
49979;BME280;35869;50.990;6.962;2023-03-22T13:16:51;100535.59;;;12.98;73.75
49979;BME280;35869;50.990;6.962;2023-03-22T13:22:15;100544.09;;;13.02;73.72
49979;BME280;35869;50.990;6.962;2023-03-22T13:27:15;100537.38;;;12.82;73.84
49979;BME280;35869;50.990;6.962;2023-03-22T13:32:30;100526.47;;;13.05;75.31
49979;BME280;35869;50.990;6.962;2023-03-22T13:37:46;100519.84;;;13.00;75.81
49979;BME280;35869;50.990;6.962;2023-03-22T13:42:47;100514.41;;;13.19;72.86
49979;BME280;35869;50.990;6.962;2023-03-22T13:53:27;100508.13;;;13.07;75.98
49979;BME280;35869;50.990;6.962;2023-03-22T13:58:51;100502.19;;;12.89;74.45
49979;BME280;35869;50.990;6.962;2023-03-22T14:03:52;100495.72;;;12.96;74.48
49979;BME280;35869;50.990;6.962;2023-03-22T14:08:57;100491.72;;;13.05;74.67
49979;BME280;35869;50.990;6.962;2023-03-22T14:14:04;100498.16;;;12.84;72.98
49979;BME280;35869;50.990;6.962;2023-03-22T14:19:07;100491.69;;;12.91;74.62
49979;BME280;35869;50.990;6.962;2023-03-22T14:24:13;100488.81;;;12.95;73.55
49979;BME280;35869;50.990;6.962;2023-03-22T14:29:21;100482.59;;;12.98;74.03
49979;BME280;35869;50.990;6.962;2023-03-22T14:34:22;100478.25;;;12.82;74.31
49979;BME280;35869;50.990;6.962;2023-03-22T14:39:35;100477.00;;;13.04;73.51
49979;BME280;35869;50.990;6.962;2023-03-22T14:44:44;100485.06;;;12.85;74.40
49979;BME280;35869;50.990;6.962;2023-03-22T14:49:46;100493.66;;;13.01;72.77
49979;BME280;35869;50.990;6.962;2023-03-22T14:54:49;100491.63;;;13.06;74.26
49979;BME280;35869;50.990;6.962;2023-03-22T14:59:50;100481.84;;;12.96;73.28
49979;BME280;35869;50.990;6.962;2023-03-22T15:04:50;100481.16;;;12.92;74.83
49979;BME280;35869;50.990;6.962;2023-03-22T15:09:51;100483.22;;;13.01;74.92
49979;BME280;35869;50.990;6.962;2023-03-22T15:14:51;100473.59;;;12.88;73.34
49979;BME280;35869;50.990;6.962;2023-03-22T15:19:51;100466.66;;;13.02;73.35
49979;BME280;35869;50.990;6.962;2023-03-22T15:24:59;100462.34;;;13.01;74.66
49979;BME280;35869;50.990;6.962;2023-03-22T15:29:59;100463.03;;;13.05;74.36
49979;BME280;35869;50.990;6.962;2023-03-22T15:35:03;100457.06;;;13.03;75.05
49979;BME280;35869;50.990;6.962;2023-03-22T15:40:06;100453.16;;;13.10;75.81
49979;BME280;35869;50.990;6.962;2023-03-22T15:45:17;100441.78;;;13.11;75.53
49979;BME280;35869;50.990;6.962;2023-03-22T15:50:22;100437.31;;;13.13;75.92
49979;BME280;35869;50.990;6.962;2023-03-22T15:55:48;100440.94;;;13.11;74.84
49979;BME280;35869;50.990;6.962;2023-03-22T16:00:49;100431.81;;;13.03;74.55
49979;BME280;35869;50.990;6.962;2023-03-22T16:05:49;100431.88;;;13.32;74.26
49979;BME280;35869;50.990;6.962;2023-03-22T16:10:49;100433.72;;;13.30;74.46
49979;BME280;35869;50.990;6.962;2023-03-22T16:15:50;100440.69;;;13.15;74.25
49979;BME280;35869;50.990;6.962;2023-03-22T16:20:51;100446.81;;;13.44;73.44
49979;BME280;35869;50.990;6.962;2023-03-22T16:25:51;100439.84;;;13.15;74.54
49979;BME280;35869;50.990;6.962;2023-03-22T16:30:51;100441.25;;;13.20;74.21
49979;BME280;35869;50.990;6.962;2023-03-22T16:35:52;100428.59;;;13.28;73.66
49979;BME280;35869;50.990;6.962;2023-03-22T16:40:52;100434.38;;;13.19;75.36
49979;BME280;35869;50.990;6.962;2023-03-22T16:45:53;100427.88;;;13.26;75.72
49979;BME280;35869;50.990;6.962;2023-03-22T16:50:53;100428.59;;;13.28;75.92
49979;BME280;35869;50.990;6.962;2023-03-22T16:55:53;100417.84;;;13.19;75.15
49979;BME280;35869;50.990;6.962;2023-03-22T17:00:54;100420.59;;;13.46;73.24
49979;BME280;35869;50.990;6.962;2023-03-22T17:05:54;100412.56;;;13.20;74.38
49979;BME280;35869;50.990;6.962;2023-03-22T17:10:54;100419.38;;;13.23;75.86
49979;BME280;35869;50.990;6.962;2023-03-22T17:15:54;100423.66;;;13.24;75.60
49979;BME280;35869;50.990;6.962;2023-03-22T17:20:54;100420.34;;;13.06;75.75
49979;BME280;35869;50.990;6.962;2023-03-22T17:25:55;100412.81;;;13.16;75.09
49979;BME280;35869;50.990;6.962;2023-03-22T17:30:55;100422.91;;;13.22;74.98
49979;BME280;35869;50.990;6.962;2023-03-22T17:35:55;100402.88;;;13.22;75.60
49979;BME280;35869;50.990;6.962;2023-03-22T17:40:55;100409.06;;;13.05;75.88
49979;BME280;35869;50.990;6.962;2023-03-22T17:45:55;100419.81;;;13.15;75.61
49979;BME280;35869;50.990;6.962;2023-03-22T17:50:56;100420.03;;;13.26;75.31
49979;BME280;35869;50.990;6.962;2023-03-22T17:55:56;100412.56;;;13.20;75.81
49979;BME280;35869;50.990;6.962;2023-03-22T18:00:56;100412.38;;;13.23;75.10
49979;BME280;35869;50.990;6.962;2023-03-22T18:05:56;100417.19;;;13.15;75.30
49979;BME280;35869;50.990;6.962;2023-03-22T18:10:56;100418.97;;;13.15;76.40
49979;BME280;35869;50.990;6.962;2023-03-22T18:15:57;100413.28;;;13.08;76.59
49979;BME280;35869;50.990;6.962;2023-03-22T18:21:04;100410.00;;;13.19;76.38
49979;BME280;35869;50.990;6.962;2023-03-22T18:26:06;100412.53;;;13.06;76.84
49979;BME280;35869;50.990;6.962;2023-03-22T18:31:07;100416.63;;;13.10;76.43
49979;BME280;35869;50.990;6.962;2023-03-22T18:36:08;100418.38;;;12.95;76.46
49979;BME280;35869;50.990;6.962;2023-03-22T18:41:09;100415.91;;;13.08;76.21
49979;BME280;35869;50.990;6.962;2023-03-22T18:46:12;100409.34;;;13.01;77.39
49979;BME280;35869;50.990;6.962;2023-03-22T18:51:12;100409.13;;;12.90;77.89
49979;BME280;35869;50.990;6.962;2023-03-22T18:56:13;100418.00;;;13.01;77.29
49979;BME280;35869;50.990;6.962;2023-03-22T19:01:13;100410.13;;;13.17;75.19
49979;BME280;35869;50.990;6.962;2023-03-22T19:06:15;100405.53;;;12.92;78.35
49979;BME280;35869;50.990;6.962;2023-03-22T19:11:16;100400.03;;;12.97;77.65
49979;BME280;35869;50.990;6.962;2023-03-22T19:16:16;100398.91;;;13.01;77.37
49979;BME280;35869;50.990;6.962;2023-03-22T19:21:16;100394.19;;;13.07;77.64
49979;BME280;35869;50.990;6.962;2023-03-22T19:26:16;100392.94;;;12.99;78.29
49979;BME280;35869;50.990;6.962;2023-03-22T19:31:16;100389.41;;;13.00;77.92
49979;BME280;35869;50.990;6.962;2023-03-22T19:36:16;100380.28;;;12.93;78.39
49979;BME280;35869;50.990;6.962;2023-03-22T19:41:17;100373.94;;;13.11;76.82
49979;BME280;35869;50.990;6.962;2023-03-22T19:46:17;100367.91;;;13.11;76.84
49979;BME280;35869;50.990;6.962;2023-03-22T19:51:17;100369.31;;;13.02;77.38
49979;BME280;35869;50.990;6.962;2023-03-22T19:56:17;100370.41;;;13.12;78.45
49979;BME280;35869;50.990;6.962;2023-03-22T20:01:18;100367.06;;;12.96;80.94
49979;BME280;35869;50.990;6.962;2023-03-22T20:06:18;100370.22;;;13.15;79.64
49979;BME280;35869;50.990;6.962;2023-03-22T20:11:18;100366.59;;;13.03;81.47
49979;BME280;35869;50.990;6.962;2023-03-22T20:16:18;100357.94;;;13.03;82.87
49979;BME280;35869;50.990;6.962;2023-03-22T20:21:19;100344.50;;;12.95;82.73
49979;BME280;35869;50.990;6.962;2023-03-22T20:26:19;100347.94;;;12.95;82.81
49979;BME280;35869;50.990;6.962;2023-03-22T20:31:19;100343.56;;;12.81;84.49
49979;BME280;35869;50.990;6.962;2023-03-22T20:36:19;100345.22;;;12.82;83.68
49979;BME280;35869;50.990;6.962;2023-03-22T20:41:20;100339.63;;;12.89;83.88
49979;BME280;35869;50.990;6.962;2023-03-22T20:46:20;100340.00;;;12.82;84.67
49979;BME280;35869;50.990;6.962;2023-03-22T20:51:21;100342.63;;;12.82;83.75
49979;BME280;35869;50.990;6.962;2023-03-22T20:56:21;100337.59;;;12.79;84.03
49979;BME280;35869;50.990;6.962;2023-03-22T21:01:21;100333.31;;;12.78;83.84
49979;BME280;35869;50.990;6.962;2023-03-22T21:06:21;100340.56;;;12.73;85.94
49979;BME280;35869;50.990;6.962;2023-03-22T21:11:22;100329.38;;;12.71;84.90
49979;BME280;35869;50.990;6.962;2023-03-22T21:16:22;100319.25;;;12.67;85.58
49979;BME280;35869;50.990;6.962;2023-03-22T21:21:22;100313.16;;;12.66;85.55
49979;BME280;35869;50.990;6.962;2023-03-22T21:26:22;100295.09;;;12.63;85.47
49979;BME280;35869;50.990;6.962;2023-03-22T21:31:23;100286.72;;;12.58;85.66
49979;BME280;35869;50.990;6.962;2023-03-22T21:36:23;100296.31;;;12.58;86.43
49979;BME280;35869;50.990;6.962;2023-03-22T21:41:24;100296.66;;;12.51;85.95
49979;BME280;35869;50.990;6.962;2023-03-22T21:46:25;100289.59;;;12.53;86.30
49979;BME280;35869;50.990;6.962;2023-03-22T21:51:26;100282.81;;;12.51;85.08
49979;BME280;35869;50.990;6.962;2023-03-22T21:56:27;100292.41;;;12.50;86.52
49979;BME280;35869;50.990;6.962;2023-03-22T22:01:27;100281.69;;;12.55;85.24
49979;BME280;35869;50.990;6.962;2023-03-22T22:06:27;100281.84;;;12.38;85.79
49979;BME280;35869;50.990;6.962;2023-03-22T22:11:28;100287.81;;;12.40;85.92
49979;BME280;35869;50.990;6.962;2023-03-22T22:16:28;100284.09;;;12.44;86.82
49979;BME280;35869;50.990;6.962;2023-03-22T22:21:28;100278.53;;;12.50;85.33
49979;BME280;35869;50.990;6.962;2023-03-22T22:26:28;100266.59;;;12.46;85.30
49979;BME280;35869;50.990;6.962;2023-03-22T22:31:29;100265.38;;;12.51;83.79
49979;BME280;35869;50.990;6.962;2023-03-22T22:36:29;100250.78;;;12.49;84.08
49979;BME280;35869;50.990;6.962;2023-03-22T22:41:29;100260.28;;;12.50;84.75
49979;BME280;35869;50.990;6.962;2023-03-22T22:46:30;100257.75;;;12.48;85.88
49979;BME280;35869;50.990;6.962;2023-03-22T22:51:30;100242.56;;;12.41;85.71
49979;BME280;35869;50.990;6.962;2023-03-22T22:56:30;100242.19;;;12.47;84.69
49979;BME280;35869;50.990;6.962;2023-03-22T23:01:30;100257.47;;;12.39;86.21
49979;BME280;35869;50.990;6.962;2023-03-22T23:06:31;100268.38;;;12.45;85.25
49979;BME280;35869;50.990;6.962;2023-03-22T23:11:31;100268.47;;;12.44;85.55
49979;BME280;35869;50.990;6.962;2023-03-22T23:16:32;100273.69;;;12.44;86.33
49979;BME280;35869;50.990;6.962;2023-03-22T23:21:34;100263.25;;;12.44;87.88
49979;BME280;35869;50.990;6.962;2023-03-22T23:26:35;100259.03;;;12.41;87.99
49979;BME280;35869;50.990;6.962;2023-03-22T23:31:35;100251.69;;;12.48;87.17
49979;BME280;35869;50.990;6.962;2023-03-22T23:36:35;100246.84;;;12.42;87.80
49979;BME280;35869;50.990;6.962;2023-03-22T23:41:36;100246.38;;;12.35;89.85
49979;BME280;35869;50.990;6.962;2023-03-22T23:46:36;100235.56;;;12.27;90.18
49979;BME280;35869;50.990;6.962;2023-03-22T23:51:37;100240.13;;;12.23;89.80
49979;BME280;35869;50.990;6.962;2023-03-22T23:56:38;100250.75;;;12.20;89.05
